KTVL/TVL METAR and TAF weather

Enter ICAO airport designator
Station Type Date Time Source
KTVL METAR 2020/01/21 17:53 UTC NOAA

KTVL 211753Z AUTO 19012G26KT 10SM BKN028 OVC036 03/M03 A3006 RMK AO2 PK WND 20026/1744 SLP170 T00281033 10028 20011 51012


Station Type Date Time Source
KTVL Decoded METAR 2020/01/21 17:53 UTC NOAA

SOUTH LAKE TAHOE AIRPORT, CA, United States (KTVL) 38-53N 119-59W 1925M
Jan 21, 2020 - 12:53 PM EST / 2020.01.21 1753 UTC
Wind: from the S (190 degrees) at 14 MPH (12 KT) gusting to 30 MPH (26 KT):0
Visibility: 10 mile(s):0
Sky conditions: overcast
Temperature: 37.0 F (2.8 C)
Dew Point: 26.1 F (-3.3 C)
Relative Humidity: 64%
Pressure (altimeter): 30.06 in. Hg (1017 hPa)
Pressure tendency: 0.04 inches (1.2 hPa) higher than three hours ago
ob: KTVL 211753Z AUTO 19012G26KT 10SM BKN028 OVC036 03/M03 A3006 RMK AO2 PK WND 20026/1744 SLP170 T00281033 10028 20011 51012
cycle: 18

Station Type Date Time Source
KTVL TAF 2020/01/21 18:22 UTC NOAA

TAF KTVL 211720Z 2118/2218 19014G24KT P6SM VCSH BKN030 OVC040 WS020/26040KT
FM212200 20013G30KT 5SM -RASN BKN025 OVC035 WS020/26040KT
FM220400 19010KT P6SM -RASN BKN025 OVC040
FM220800 VRB04KT P6SM BKN030

Example: see airport list